createdAt,value
2023-01-11T00:00:28.192Z,100330.78
2023-01-11T00:02:56.815Z,100324.81
2023-01-11T00:05:23.677Z,100322.44
2023-01-11T00:07:50.600Z,100309.09
2023-01-11T00:10:17.435Z,100305.28
2023-01-11T00:12:44.417Z,100302.66
2023-01-11T00:15:11.740Z,100303.44
2023-01-11T00:17:38.330Z,100306.75
2023-01-11T00:20:05.407Z,100314.31
2023-01-11T00:22:32.022Z,100318.19
2023-01-11T00:24:58.495Z,100326.75
2023-01-11T00:27:25.043Z,100316.88
2023-01-11T00:29:51.630Z,100314.50
2023-01-11T00:32:18.289Z,100319.25
2023-01-11T00:34:44.884Z,100307.31
2023-01-11T00:37:11.631Z,100309.50
2023-01-11T00:39:38.127Z,100310.25
2023-01-11T00:42:23.100Z,100303.56
2023-01-11T00:45:08.104Z,100299.69
2023-01-11T00:47:53.014Z,100293.78
2023-01-11T00:50:19.739Z,100289.00
2023-01-11T00:52:46.260Z,100273.44
2023-01-11T00:55:12.899Z,100276.75
2023-01-11T00:57:39.520Z,100261.75
2023-01-11T01:00:07.000Z,100270.63
2023-01-11T01:02:34.021Z,100269.69
2023-01-11T01:05:00.671Z,100269.66
2023-01-11T01:07:27.191Z,100267.63
2023-01-11T01:09:53.778Z,100267.97
2023-01-11T01:12:38.843Z,100266.31
2023-01-11T01:15:06.179Z,100259.13
2023-01-11T01:17:32.753Z,100258.78
2023-01-11T01:19:59.271Z,100251.97
2023-01-11T01:22:25.853Z,100250.81
2023-01-11T01:24:52.379Z,100246.56
2023-01-11T01:27:20.079Z,100235.63
2023-01-11T01:29:46.720Z,100241.03
2023-01-11T01:32:13.309Z,100248.38
2023-01-11T01:34:39.821Z,100245.34
2023-01-11T01:37:11.316Z,100245.97
2023-01-11T01:39:38.924Z,100255.00
2023-01-11T01:42:06.272Z,100258.94
2023-01-11T01:44:57.041Z,100264.13
2023-01-11T01:47:32.447Z,100252.84
2023-01-11T01:50:02.226Z,100255.44
2023-01-11T01:52:29.451Z,100241.94
2023-01-11T01:54:59.555Z,100236.78
2023-01-11T01:57:31.374Z,100250.81
2023-01-11T02:00:01.572Z,100251.88
2023-01-11T02:02:28.357Z,100242.84
2023-01-11T02:04:57.616Z,100221.56
2023-01-11T02:07:36.366Z,100209.72
2023-01-11T02:10:10.315Z,100213.41
2023-01-11T02:12:58.578Z,100211.38
2023-01-11T02:15:25.418Z,100223.41
2023-01-11T02:17:51.897Z,100237.63
2023-01-11T02:20:21.390Z,100246.59
2023-01-11T02:23:14.987Z,100236.19
2023-01-11T02:26:09.020Z,100230.72
2023-01-11T02:28:38.303Z,100225.63
2023-01-11T02:31:28.219Z,100210.09
2023-01-11T02:34:02.311Z,100206.97
2023-01-11T02:36:44.593Z,100221.75
2023-01-11T02:39:45.336Z,100232.47
2023-01-11T02:43:01.637Z,100232.56
2023-01-11T02:45:48.763Z,100223.22
2023-01-11T02:48:33.722Z,100214.00
2023-01-11T02:51:12.451Z,100216.72
2023-01-11T02:53:47.565Z,100213.56
2023-01-11T02:56:20.212Z,100206.91
2023-01-11T02:58:50.281Z,100190.13
2023-01-11T03:01:18.985Z,100180.09
2023-01-11T03:03:45.515Z,100177.72
2023-01-11T03:06:22.904Z,100166.22
2023-01-11T03:09:04.559Z,100179.00
2023-01-11T03:12:08.874Z,100181.59
2023-01-11T03:14:41.429Z,100170.88
2023-01-11T03:17:19.934Z,100169.19
2023-01-11T03:19:55.076Z,100166.75
2023-01-11T03:22:32.254Z,100173.06
2023-01-11T03:25:18.083Z,100151.72
2023-01-11T03:27:55.763Z,100157.53
2023-01-11T03:30:37.852Z,100162.34
2023-01-11T03:33:13.558Z,100160.13
2023-01-11T03:35:42.913Z,100150.50
2023-01-11T03:38:27.738Z,100152.69
2023-01-11T03:40:58.336Z,100149.22
2023-01-11T03:43:26.686Z,100155.50
2023-01-11T03:45:56.426Z,100161.81
2023-01-11T03:48:31.542Z,100148.09
2023-01-11T03:50:59.658Z,100141.44
2023-01-11T03:53:29.123Z,100149.56
2023-01-11T03:55:58.565Z,100156.81
2023-01-11T03:58:28.488Z,100142.53
2023-01-11T04:00:59.533Z,100152.00
2023-01-11T04:03:27.245Z,100147.94
2023-01-11T04:06:02.637Z,100151.06
2023-01-11T04:08:31.080Z,100149.03
2023-01-11T04:10:57.966Z,100150.84
2023-01-11T04:13:24.754Z,100148.81
2023-01-11T04:15:53.551Z,100144.75
2023-01-11T04:18:20.046Z,100143.44
2023-01-11T04:20:46.682Z,100148.28
2023-01-11T04:23:13.152Z,100151.59
2023-01-11T04:25:39.627Z,100137.19
2023-01-11T04:28:06.427Z,100148.06
2023-01-11T04:30:33.104Z,100135.34
2023-01-11T04:32:59.868Z,100140.16
2023-01-11T04:35:26.763Z,100126.63
2023-01-11T04:37:57.137Z,100130.69
2023-01-11T04:40:24.779Z,100124.59
2023-01-11T04:42:51.646Z,100124.03
2023-01-11T04:45:18.163Z,100124.41
2023-01-11T04:47:44.721Z,100133.84
2023-01-11T04:50:12.002Z,100127.00
2023-01-11T04:52:40.628Z,100129.06
2023-01-11T04:55:07.912Z,100134.59
2023-01-11T04:57:34.570Z,100123.06
2023-01-11T05:00:01.094Z,100124.94
2023-01-11T05:02:27.591Z,100124.78
2023-01-11T05:04:54.223Z,100122.56
2023-01-11T05:07:20.705Z,100122.19
2023-01-11T05:09:50.106Z,100115.16
2023-01-11T05:12:16.749Z,100115.88
2023-01-11T05:14:43.283Z,100112.19
2023-01-11T05:17:14.095Z,100119.00
2023-01-11T05:19:41.341Z,100124.56
2023-01-11T05:22:08.686Z,100133.22
2023-01-11T05:24:35.519Z,100130.50
2023-01-11T05:27:02.363Z,100128.47
2023-01-11T05:29:29.206Z,100122.72
2023-01-11T05:31:55.965Z,100127.56
2023-01-11T05:34:22.832Z,100132.34
2023-01-11T05:36:49.333Z,100127.91
2023-01-11T05:39:15.846Z,100132.94
2023-01-11T05:41:42.600Z,100132.00
2023-01-11T05:44:31.600Z,100136.41
2023-01-11T05:46:58.468Z,100133.47
2023-01-11T05:49:25.180Z,100135.31
2023-01-11T05:51:51.683Z,100133.28
2023-01-11T05:54:18.318Z,100134.78
2023-01-11T05:56:44.882Z,100123.81
2023-01-11T05:59:11.823Z,100111.63
2023-01-11T06:01:38.620Z,100111.63
2023-01-11T06:04:05.360Z,100109.78
2023-01-11T06:06:32.902Z,100098.34
2023-01-11T06:08:59.591Z,100082.78
2023-01-11T06:11:26.142Z,100095.53
2023-01-11T06:13:52.689Z,100109.06
2023-01-11T06:16:21.210Z,100103.81
2023-01-11T06:18:49.403Z,100082.25
2023-01-11T06:21:17.000Z,100077.97
2023-01-11T06:23:46.101Z,100083.19
2023-01-11T06:26:15.756Z,100100.91
2023-01-11T06:28:42.890Z,100089.06
2023-01-11T06:31:09.642Z,100102.94
2023-01-11T06:33:36.520Z,100091.28
2023-01-11T06:36:09.182Z,100083.63
2023-01-11T06:38:36.696Z,100089.63
2023-01-11T06:41:05.493Z,100086.84
2023-01-11T06:43:32.686Z,100085.72
2023-01-11T06:45:59.792Z,100088.50
2023-01-11T06:48:27.237Z,100085.72
2023-01-11T06:50:56.814Z,100087.03
2023-01-11T06:53:27.442Z,100092.97
2023-01-11T06:55:57.321Z,100094.63
2023-01-11T06:58:25.218Z,100080.94
2023-01-11T07:00:53.892Z,100086.28
2023-01-11T07:03:20.796Z,100073.56
2023-01-11T07:05:47.472Z,100075.03
2023-01-11T07:08:14.144Z,100080.72
2023-01-11T07:10:41.721Z,100089.44
2023-01-11T07:13:08.311Z,100115.47
2023-01-11T07:15:35.151Z,100125.94
2023-01-11T07:18:02.621Z,100133.72
2023-01-11T07:20:30.076Z,100138.41
2023-01-11T07:22:58.550Z,100129.41
2023-01-11T07:25:27.706Z,100126.81
2023-01-11T07:28:02.429Z,100111.09
2023-01-11T07:30:30.728Z,100116.47
2023-01-11T07:32:58.665Z,100125.88
2023-01-11T07:35:28.048Z,100122.34
2023-01-11T07:37:55.421Z,100134.38
2023-01-11T07:40:22.059Z,100133.06
2023-01-11T07:43:08.401Z,100122.34
2023-01-11T07:45:45.300Z,100141.63
2023-01-11T07:48:13.304Z,100138.31
2023-01-11T07:50:44.206Z,100144.59
2023-01-11T07:53:11.364Z,100132.34
2023-01-11T07:55:40.023Z,100132.72
2023-01-11T07:58:08.302Z,100125.34
2023-01-11T08:00:34.869Z,100114.03
2023-01-11T08:03:02.529Z,100118.69
2023-01-11T08:05:29.734Z,100123.84
2023-01-11T08:07:56.244Z,100126.81
2023-01-11T08:10:22.884Z,100128.84
2023-01-11T08:13:08.373Z,100129.56
2023-01-11T08:15:42.552Z,100136.03
2023-01-11T08:18:11.589Z,100139.00
2023-01-11T08:20:39.188Z,100147.53
2023-01-11T08:23:08.411Z,100160.50
2023-01-11T08:25:35.635Z,100161.22
2023-01-11T08:28:04.013Z,100151.41
2023-01-11T08:30:30.852Z,100144.03
2023-01-11T08:32:57.811Z,100146.63
2023-01-11T08:35:27.204Z,100131.59
2023-01-11T08:37:54.437Z,100140.16
2023-01-11T08:40:23.934Z,100136.44
2023-01-11T08:42:55.848Z,100147.53
2023-01-11T08:45:22.465Z,100147.16
2023-01-11T08:47:50.859Z,100148.47
2023-01-11T08:50:18.880Z,100146.75
2023-01-11T08:52:46.343Z,100143.25
2023-01-11T08:55:12.910Z,100141.06
2023-01-11T08:57:39.541Z,100146.97
2023-01-11T09:00:09.204Z,100144.03
2023-01-11T09:02:36.123Z,100140.31
2023-01-11T09:05:02.974Z,100143.81
2023-01-11T09:07:29.570Z,100158.59
2023-01-11T09:09:56.091Z,100151.19
2023-01-11T09:12:22.752Z,100161.72
2023-01-11T09:14:49.378Z,100160.50
2023-01-11T09:17:15.921Z,100168.44
2023-01-11T09:19:42.768Z,100176.94
2023-01-11T09:22:09.300Z,100165.69
2023-01-11T09:24:35.811Z,100179.03
2023-01-11T09:27:02.774Z,100177.50
2023-01-11T09:29:29.476Z,100176.03
2023-01-11T09:31:56.071Z,100177.28
2023-01-11T09:34:23.419Z,100172.31
2023-01-11T09:36:50.598Z,100181.97
2023-01-11T09:39:20.435Z,100172.16
2023-01-11T09:42:31.698Z,100186.03
2023-01-11T09:45:11.765Z,100187.53
2023-01-11T09:48:11.771Z,100183.44
2023-01-11T09:50:43.491Z,100182.50
2023-01-11T09:53:20.783Z,100181.78
2023-01-11T09:55:49.688Z,100181.41
2023-01-11T09:58:38.693Z,100183.28
2023-01-11T10:01:38.823Z,100187.53
2023-01-11T10:04:33.487Z,100180.28
2023-01-11T10:07:19.053Z,100180.31
2023-01-11T10:18:33.480Z,100193.09
2023-01-11T10:19:19.612Z,100188.25
2023-01-11T10:22:04.596Z,100203.88
2023-01-11T10:24:46.275Z,100206.72
2023-01-11T10:27:31.478Z,100209.00
2023-01-11T10:30:33.313Z,100218.00
2023-01-11T10:33:42.845Z,100212.31
2023-01-11T10:36:37.803Z,100213.03
2023-01-11T10:39:32.624Z,100214.13
2023-01-11T10:42:11.744Z,100208.25
2023-01-11T10:44:49.680Z,100217.44
2023-01-11T10:47:22.075Z,100210.94
2023-01-11T10:49:56.066Z,100218.94
2023-01-11T10:52:35.434Z,100226.34
2023-01-11T10:55:13.033Z,100223.75
2023-01-11T10:58:17.220Z,100229.53
2023-01-11T11:00:57.270Z,100249.66
2023-01-11T11:04:05.816Z,100236.66
2023-01-11T11:06:58.079Z,100246.34
2023-01-11T11:09:36.475Z,100232.97
2023-01-11T11:12:16.364Z,100231.75
2023-01-11T11:14:58.956Z,100239.34
2023-01-11T11:17:29.945Z,100234.34
2023-01-11T11:19:57.611Z,100252.13
2023-01-11T11:22:24.689Z,100245.25
2023-01-11T11:25:07.198Z,100242.13
2023-01-11T11:27:44.678Z,100239.34
2023-01-11T11:30:13.898Z,100231.94
2023-01-11T11:32:53.623Z,100236.38
2023-01-11T11:35:50.581Z,100226.56
2023-01-11T11:38:23.833Z,100238.78
2023-01-11T11:41:17.332Z,100234.72
2023-01-11T11:43:46.328Z,100241.56
2023-01-11T11:46:19.508Z,100233.81
2023-01-11T11:49:11.352Z,100231.34
2023-01-11T11:51:38.367Z,100224.53
2023-01-11T11:54:04.981Z,100226.94
2023-01-11T11:56:37.844Z,100228.59
2023-01-11T11:59:13.988Z,100242.66
2023-01-11T12:01:47.429Z,100242.31
2023-01-11T12:04:19.246Z,100248.97
2023-01-11T12:06:51.268Z,100250.09
2023-01-11T12:09:29.095Z,100252.69
2023-01-11T12:11:56.732Z,100253.78
2023-01-11T12:14:35.291Z,100243.06
2023-01-11T12:17:25.048Z,100251.56
2023-01-11T12:19:51.876Z,100262.63
2023-01-11T12:22:21.987Z,100264.16
2023-01-11T12:25:14.748Z,100268.59
2023-01-11T12:28:19.715Z,100256.38
2023-01-11T12:31:41.001Z,100260.06
2023-01-11T12:34:29.271Z,100260.06
2023-01-11T12:36:58.634Z,100249.72
2023-01-11T12:39:53.580Z,100243.78
2023-01-11T12:42:38.425Z,100238.41
2023-01-11T12:45:23.740Z,100248.97
2023-01-11T12:48:06.415Z,100250.25
2023-01-11T12:50:56.903Z,100252.16
2023-01-11T12:53:23.592Z,100246.94
2023-01-11T12:56:24.296Z,100245.47
2023-01-11T12:59:02.027Z,100239.91
2023-01-11T13:01:48.293Z,100245.81
2023-01-11T13:04:31.088Z,100243.09
2023-01-11T13:07:13.951Z,100248.44
2023-01-11T13:10:04.500Z,100254.72
2023-01-11T13:12:48.290Z,100243.22
2023-01-11T13:15:30.855Z,100244.19
2023-01-11T13:18:20.418Z,100226.38
2023-01-11T13:21:00.683Z,100214.44
2023-01-11T13:23:43.394Z,100218.25
2023-01-11T13:26:18.737Z,100216.91
2023-01-11T13:28:50.359Z,100234.88
2023-01-11T13:31:17.753Z,100236.34
2023-01-11T13:33:49.672Z,100242.47
2023-01-11T13:36:23.742Z,100252.88
2023-01-11T13:39:04.834Z,100254.88
2023-01-11T13:41:41.396Z,100267.44
2023-01-11T13:44:24.584Z,100270.41
2023-01-11T13:47:20.684Z,100275.63
2023-01-11T13:49:55.969Z,100275.97
2023-01-11T13:53:03.227Z,100275.06
2023-01-11T13:55:37.890Z,100276.16
2023-01-11T13:58:31.357Z,100287.28
2023-01-11T14:01:08.341Z,100288.78
2023-01-11T14:03:56.702Z,100285.44
2023-01-11T14:06:43.975Z,100295.81
2023-01-11T14:09:29.480Z,100283.78
2023-01-11T14:12:05.094Z,100290.19
2023-01-11T14:14:56.230Z,100280.94
2023-01-11T14:17:43.789Z,100284.88
2023-01-11T14:20:26.742Z,100302.31
2023-01-11T14:23:04.971Z,100304.19
2023-01-11T14:25:37.854Z,100315.44
2023-01-11T14:28:19.065Z,100315.44
2023-01-11T14:31:07.614Z,100316.78
2023-01-11T14:33:59.131Z,100332.72
2023-01-11T14:36:56.843Z,100342.53
2023-01-11T14:39:54.662Z,100335.50
2023-01-11T14:42:35.493Z,100343.09
2023-01-11T14:45:30.424Z,100343.22
2023-01-11T14:48:02.337Z,100362.84
2023-01-11T14:50:47.254Z,100362.53
2023-01-11T14:53:19.432Z,100354.53
2023-01-11T14:55:46.543Z,100367.53
2023-01-11T14:58:31.580Z,100368.63
2023-01-11T15:00:58.060Z,100362.69
2023-01-11T15:03:33.032Z,100377.16
2023-01-11T15:06:02.738Z,100384.56
2023-01-11T15:08:55.998Z,100371.94
2023-01-11T15:11:35.151Z,100377.53
2023-01-11T15:14:07.681Z,100387.53
2023-01-11T15:16:54.772Z,100387.66
2023-01-11T15:19:34.186Z,100396.06
2023-01-11T15:22:04.274Z,100412.94
2023-01-11T15:24:34.172Z,100406.44
2023-01-11T15:27:02.744Z,100406.41
2023-01-11T15:29:32.471Z,100407.91
2023-01-11T15:32:02.030Z,100419.53
2023-01-11T15:34:39.581Z,100429.78
2023-01-11T15:37:24.393Z,100429.13
2023-01-11T15:40:17.252Z,100422.53
2023-01-11T15:43:01.981Z,100433.13
2023-01-11T15:46:03.636Z,100441.94
2023-01-11T15:49:12.388Z,100437.25
2023-01-11T15:52:16.602Z,100443.22
2023-01-11T15:55:00.991Z,100440.66
2023-01-11T15:57:27.521Z,100449.75
2023-01-11T16:00:16.101Z,100439.50
2023-01-11T16:02:54.583Z,100434.66
2023-01-11T16:05:25.247Z,100449.09
2023-01-11T16:08:11.723Z,100443.63
2023-01-11T16:10:52.365Z,100451.34
2023-01-11T16:13:31.487Z,100454.88
2023-01-11T16:16:19.816Z,100460.22
2023-01-11T16:18:52.842Z,100473.75
2023-01-11T16:21:21.455Z,100475.16
2023-01-11T16:23:48.946Z,100480.50
2023-01-11T16:26:18.333Z,100474.75
2023-01-11T16:28:50.397Z,100490.34
2023-01-11T16:31:17.025Z,100502.19
2023-01-11T16:33:43.839Z,100506.31
2023-01-11T16:36:15.090Z,100504.59
2023-01-11T16:38:52.387Z,100496.56
2023-01-11T16:41:19.639Z,100507.47
2023-01-11T16:44:07.951Z,100501.50
2023-01-11T16:46:46.855Z,100516.31
2023-01-11T16:49:18.113Z,100519.84
2023-01-11T16:51:45.528Z,100517.34
2023-01-11T16:54:23.821Z,100522.47
2023-01-11T16:56:50.758Z,100513.81
2023-01-11T16:59:29.403Z,100520.31
2023-01-11T17:02:00.872Z,100526.56
2023-01-11T17:04:49.299Z,100521.28
2023-01-11T17:07:29.960Z,100511.69
2023-01-11T17:10:24.101Z,100515.19
2023-01-11T17:13:38.710Z,100515.00
2023-01-11T17:16:14.684Z,100523.13
2023-01-11T17:18:42.522Z,100527.16
2023-01-11T17:21:29.329Z,100529.00
2023-01-11T17:24:01.932Z,100540.31
2023-01-11T17:26:33.376Z,100536.03
2023-01-11T17:29:00.614Z,100531.72
2023-01-11T17:31:31.043Z,100538.25
2023-01-11T17:34:08.543Z,100539.94
2023-01-11T17:36:35.999Z,100546.00
2023-01-11T17:39:04.592Z,100555.66
2023-01-11T17:41:51.102Z,100561.31
2023-01-11T17:44:39.699Z,100562.41
2023-01-11T17:47:10.875Z,100569.19
2023-01-11T17:49:38.601Z,100572.50
2023-01-11T17:52:25.160Z,100566.78
2023-01-11T17:55:00.754Z,100575.66
2023-01-11T17:57:27.789Z,100571.03
2023-01-11T18:00:17.857Z,100574.66
2023-01-11T18:02:46.583Z,100574.56
2023-01-11T18:05:16.329Z,100579.06
2023-01-11T18:07:48.564Z,100570.66
2023-01-11T18:10:33.774Z,100578.66
2023-01-11T18:13:00.812Z,100583.56
2023-01-11T18:15:36.900Z,100598.81
2023-01-11T18:18:06.012Z,100589.31
2023-01-11T18:20:37.350Z,100600.50
2023-01-11T18:23:17.884Z,100610.94
2023-01-11T18:25:46.571Z,100611.75
2023-01-11T18:28:19.273Z,100608.53
2023-01-11T18:30:54.282Z,100615.81
2023-01-11T18:33:24.251Z,100621.88
2023-01-11T18:35:58.095Z,100625.34
2023-01-11T18:38:30.452Z,100615.94
2023-01-11T18:40:59.559Z,100627.91
2023-01-11T18:43:28.948Z,100629.41
2023-01-11T18:45:55.987Z,100625.56
2023-01-11T18:48:23.220Z,100634.50
2023-01-11T18:50:52.047Z,100644.19
2023-01-11T18:53:19.012Z,100648.25
2023-01-11T18:55:46.238Z,100646.97
2023-01-11T18:58:12.836Z,100642.94
2023-01-11T19:00:41.152Z,100640.66
2023-01-11T19:03:10.376Z,100624.50
2023-01-11T19:05:36.955Z,100627.66
2023-01-11T19:08:03.674Z,100631.00
2023-01-11T19:10:30.311Z,100650.25
2023-01-11T19:12:57.831Z,100642.97
2023-01-11T19:15:24.929Z,100646.19
2023-01-11T19:17:51.503Z,100641.97
2023-01-11T19:20:18.043Z,100647.38
2023-01-11T19:22:44.846Z,100642.81
2023-01-11T19:25:12.027Z,100649.19
2023-01-11T19:27:38.857Z,100664.59
2023-01-11T19:30:06.914Z,100661.59
2023-01-11T19:32:33.531Z,100662.00
2023-01-11T19:35:00.080Z,100664.84
2023-01-11T19:37:28.112Z,100664.31
2023-01-11T19:39:54.769Z,100669.31
2023-01-11T19:42:22.188Z,100662.47
2023-01-11T19:44:48.827Z,100663.56
2023-01-11T19:47:15.723Z,100666.22
2023-01-11T19:49:43.238Z,100674.75
2023-01-11T19:52:14.586Z,100675.56
2023-01-11T19:54:45.348Z,100690.66
2023-01-11T19:57:14.403Z,100704.66
2023-01-11T19:59:42.125Z,100714.81
2023-01-11T20:02:11.023Z,100708.34
2023-01-11T20:04:37.540Z,100707.41
2023-01-11T20:07:04.939Z,100710.41
2023-01-11T20:09:31.606Z,100712.41
2023-01-11T20:11:58.922Z,100712.94
2023-01-11T20:14:25.686Z,100706.59
2023-01-11T20:16:53.130Z,100698.31
2023-01-11T20:19:19.703Z,100701.03
2023-01-11T20:21:46.279Z,100701.41
2023-01-11T20:24:13.983Z,100713.59
2023-01-11T20:26:41.144Z,100707.03
2023-01-11T20:29:08.229Z,100702.94
2023-01-11T20:31:35.689Z,100711.00
2023-01-11T20:34:14.881Z,100711.66
2023-01-11T20:36:44.216Z,100709.84
2023-01-11T20:39:11.622Z,100723.19
2023-01-11T20:41:47.265Z,100719.31
2023-01-11T20:44:16.084Z,100713.03
2023-01-11T20:46:43.268Z,100726.13
2023-01-11T20:49:10.006Z,100730.28
2023-01-11T20:51:37.062Z,100729.00
2023-01-11T20:54:05.133Z,100732.94
2023-01-11T20:56:33.313Z,100738.44
2023-01-11T20:59:01.123Z,100734.75
2023-01-11T21:01:27.834Z,100744.53
2023-01-11T21:03:55.463Z,100743.16
2023-01-11T21:06:22.177Z,100752.41
2023-01-11T21:08:48.725Z,100752.41
2023-01-11T21:11:16.251Z,100739.69
2023-01-11T21:13:42.917Z,100742.81
2023-01-11T21:16:15.160Z,100748.41
2023-01-11T21:18:44.047Z,100745.81
2023-01-11T21:21:18.591Z,100746.50
2023-01-11T21:23:46.395Z,100745.53
2023-01-11T21:26:17.908Z,100746.34
2023-01-11T21:28:49.815Z,100751.00
2023-01-11T21:31:17.865Z,100759.53
2023-01-11T21:33:44.541Z,100751.91
2023-01-11T21:36:13.279Z,100749.63
2023-01-11T21:38:40.348Z,100747.44
2023-01-11T21:41:13.131Z,100740.88
2023-01-11T21:43:40.606Z,100757.78
2023-01-11T21:46:07.502Z,100759.00
2023-01-11T21:48:34.111Z,100755.59
2023-01-11T21:51:01.039Z,100744.84
2023-01-11T21:53:32.439Z,100756.06
2023-01-11T21:56:08.669Z,100753.97
2023-01-11T21:58:35.831Z,100760.31
2023-01-11T22:01:13.115Z,100752.44
2023-01-11T22:03:43.129Z,100755.44
2023-01-11T22:06:10.100Z,100762.03
2023-01-11T22:08:38.482Z,100761.56
2023-01-11T22:11:06.420Z,100763.81
2023-01-11T22:13:34.771Z,100758.00
2023-01-11T22:16:03.435Z,100767.22
2023-01-11T22:18:30.884Z,100765.13
2023-01-11T22:21:04.060Z,100771.38
2023-01-11T22:23:30.938Z,100768.50
2023-01-11T22:25:57.502Z,100766.44
2023-01-11T22:28:24.050Z,100768.91
2023-01-11T22:30:50.749Z,100761.94
2023-01-11T22:33:17.256Z,100757.16
2023-01-11T22:35:54.150Z,100756.63
2023-01-11T22:38:20.680Z,100758.03
2023-01-11T22:40:47.197Z,100746.53
2023-01-11T22:43:14.159Z,100754.22
2023-01-11T22:45:40.708Z,100739.38
2023-01-11T22:48:07.222Z,100743.78
2023-01-11T22:50:33.977Z,100741.34
2023-01-11T22:53:00.498Z,100753.16
2023-01-11T22:55:27.004Z,100750.63
2023-01-11T22:57:53.754Z,100756.41
2023-01-11T23:00:20.581Z,100744.81
2023-01-11T23:02:47.144Z,100752.59
2023-01-11T23:05:13.824Z,100766.66
2023-01-11T23:07:40.444Z,100763.31
2023-01-11T23:10:08.578Z,100770.09
2023-01-11T23:12:53.821Z,100770.47
2023-01-11T23:15:20.327Z,100760.06
2023-01-11T23:17:47.342Z,100762.03
2023-01-11T23:20:14.278Z,100759.75
2023-01-11T23:22:41.734Z,100759.56
2023-01-11T23:25:08.877Z,100741.66
2023-01-11T23:27:36.038Z,100750.31
2023-01-11T23:30:02.901Z,100743.28
2023-01-11T23:32:29.601Z,100746.78
2023-01-11T23:34:56.337Z,100740.16
2023-01-11T23:37:22.866Z,100743.31
2023-01-11T23:39:49.497Z,100752.97
2023-01-11T23:42:28.081Z,100759.25
2023-01-11T23:44:55.393Z,100744.06
2023-01-11T23:47:25.202Z,100761.13
2023-01-11T23:49:54.911Z,100752.75
2023-01-11T23:52:24.585Z,100746.03
2023-01-11T23:54:51.497Z,100744.44
2023-01-11T23:57:19.825Z,100747.84
2023-01-11T23:59:46.377Z,100742.84
